METAR AND TAF INFORMATION
METAR FOR FAOR
ADDS - METARS form results

(0725 UTC 25 August 2019)
Data provider http://aviationweather.gov/metar/data/
 
METAR text: FAOR 250700Z 32010KT 290V350 CAVOK 16/01 Q1031 NOSIG
Conditions at: FAOR (JOHANNESBURG/TAM, ZA) observed 0700 UTC 25 August 2019
Temperature: 16.0°C (61°F)
Dewpoint: 1.0°C (34°F) [RH = 36%]
Pressure (altimeter): 30.44 inches Hg (1031.0 mb)
Winds: from the NW (320 degrees) at 12 MPH (10 knots; 5.1 m/s)
Visibility: 6 or more miles (10+ km)
Ceiling: ceiling and visibility are OK
Clouds: unknown
Weather: no significant weather observed at this time

METAR text: FAOR 250630Z 34010KT CAVOK 14/02 Q1031 NOSIG
Conditions at: FAOR (JOHANNESBURG/TAM, ZA) observed 0630 UTC 25 August 2019
Temperature: 14.0°C (57°F)
Dewpoint: 2.0°C (36°F) [RH = 44%]
Pressure (altimeter): 30.44 inches Hg (1031.0 mb)
Winds: from the NNW (340 degrees) at 12 MPH (10 knots; 5.1 m/s)
Visibility: 6 or more miles (10+ km)
Ceiling: ceiling and visibility are OK
Clouds: unknown
Weather: no significant weather observed at this time

Forecast for: FAOR (JOHANNESBURG/TAM, ZA)
Text: TAF FAOR 250400Z 2506/2612 34010KT CAVOK TX24/2513Z TN12/2604Z
Forecast period: 0600 to 1000 UTC 25 August 2019
Forecast type: FROM: standard forecast or significant change
Winds: from the NNW (340 degrees) at 12 MPH (10 knots; 5.1 m/s)
Visibility: 6 or more miles 10+ km)
Ceiling: unknown
Clouds: missing
Weather: no significant weather forecast for this period
Text: BECMG 2510/2512 VRB03KT
Forecast period: 1000 UTC 25 August 2019 to 1200 UTC 26 August 2019
Forecast type: BECOMING: Conditions expected to become as follows by 1200 UTC 25 August 2019
Winds: variable direction winds at 3 MPH (3 knots; 1.5 m/s)
Visibility: 6 or more miles 10+ km)
Ceiling: unknown
Clouds: missing
Weather: no significant weather forecast for this period

 AIRPORT MAP

 RUNWAY INFORMATION
Runway 03L Runway length 14495 ft Runway width 200 ft
Runway elevation 5558 ft Runway displaced threshold 0 ft Runway heading 14
Runway 21R Runway length 14495 ft Runway width 200 ft
Runway elevation 5501 ft Runway displaced threshold 0 ft Runway heading 194
Runway 03R Runway length 11155 ft Runway width 197 ft
Runway elevation 5510 ft Runway displaced threshold 0 ft Runway heading 14
Runway 21L Runway length 11155 ft Runway width 197 ft
Runway elevation 5494 ft Runway displaced threshold 0 ft Runway heading 194

 AIRPORT FREQUENCIES
Type APP Name APP Frequency 123.7 MHZ
Type ATIS Name ATIS Frequency 126.2 MHZ
Type CLD Name CLNC DEL Frequency 121.7 MHZ
Type GND Name GND Frequency 121.9 MHZ
Type GTE Name APRON Frequency 122.65 MHZ
Type TWR Name TWR Frequency 118.1 MHZ

 AIRPORT NEAR NAVIGATION AIDS
Type NDB Name Johannesburg Frequency 202 KHZ
Type VOR-DME Name Johannesburg Frequency 115200 KHZ



The South Africal Virtual Air Force